Time;durP1;ratioP1;P1;durP2;ratioP2;P2;SDS_P1;SDS_P2;PMS_P1;PMS_P2;Temp;Humidity;BMP_temperature;BMP_pressure;BME280_temperature;BME280_humidity;BME280_pressure;Samples;Min_cycle;Max_cycle;Signal;HPM_P1;HPM_P2
2022/02/13 00:01:10;;;;;;;12.70;5.80;;;;;;;4.08;91.50;96314.97;5052568;28;19925;-51
2022/02/13 00:03:37;;;;;;;11.73;6.47;;;;;;;4.06;91.66;96309.19;5051569;28;20502;-49
2022/02/13 00:06:04;;;;;;;19.75;6.68;;;;;;;4.06;91.55;96301.44;5052878;28;20044;-49
2022/02/13 00:08:40;;;;;;;10.65;6.15;;;;;;;4.00;91.67;96295.94;5052258;28;20048;-51
2022/02/13 00:11:13;;;;;;;12.20;6.57;;;;;;;3.97;92.02;96301.38;5049164;28;20041;-49
2022/02/13 00:13:39;;;;;;;12.15;6.70;;;;;;;3.96;90.34;96299.78;5055529;28;20044;-49
2022/02/13 00:16:09;;;;;;;10.45;5.60;;;;;;;3.92;88.54;96298.47;5057641;28;20036;-50
2022/02/13 00:18:36;;;;;;;6.40;3.95;;;;;;;3.83;84.92;96307.09;5050629;28;20488;-51
2022/02/13 00:21:16;;;;;;;9.98;4.70;;;;;;;3.86;82.60;96314.53;5048217;28;20641;-49
2022/02/13 00:23:43;;;;;;;8.80;4.82;;;;;;;3.83;82.19;96312.25;5055093;28;20048;-46
2022/02/13 00:26:10;;;;;;;8.35;4.28;;;;;;;3.62;83.19;96287.66;5055287;28;20064;-49
2022/02/13 00:28:37;;;;;;;10.82;5.68;;;;;;;3.80;84.40;96312.59;5047408;28;20049;-48
2022/02/13 00:31:36;;;;;;;7.22;4.55;;;;;;;3.74;82.19;96310.59;5054243;28;20526;-51
2022/02/13 00:34:02;;;;;;;8.48;4.57;;;;;;;3.73;81.00;96309.00;5057882;28;20099;-46
2022/02/13 00:36:31;;;;;;;11.82;4.43;;;;;;;3.64;79.55;96311.50;5045900;28;20099;-49
2022/02/13 00:38:58;;;;;;;10.20;3.03;;;;;;;3.67;78.83;96309.59;5056109;28;20078;-49
2022/02/13 00:41:26;;;;;;;10.38;3.20;;;;;;;3.58;77.28;96317.28;5051792;28;20079;-47
2022/02/13 00:43:53;;;;;;;6.45;3.08;;;;;;;3.51;75.87;96308.53;5053856;28;21856;-52
2022/02/13 00:46:20;;;;;;;5.20;3.42;;;;;;;3.46;76.00;96310.75;5045935;28;20045;-47
2022/02/13 00:48:54;;;;;;;4.32;2.90;;;;;;;3.43;74.48;96304.09;5053893;28;20517;-49
2022/02/13 00:51:25;;;;;;;4.88;2.35;;;;;;;3.41;74.62;96318.09;5050149;28;20140;-48
2022/02/13 00:54:10;;;;;;;3.65;2.45;;;;;;;3.33;74.85;96307.72;5043555;28;20052;-48
2022/02/13 00:56:36;;;;;;;6.28;2.42;;;;;;;3.34;75.02;96315.31;5051366;28;20067;-53
2022/02/13 00:59:03;;;;;;;7.05;2.95;;;;;;;3.29;75.23;96312.38;5046400;28;20045;-48
2022/02/13 01:01:33;;;;;;;14.05;3.35;;;;;;;3.29;74.74;96316.72;5048776;28;22771;-47
2022/02/13 01:04:00;;;;;;;5.45;3.00;;;;;;;3.29;75.46;96314.16;5054626;28;20167;-50
2022/02/13 01:06:27;;;;;;;6.68;3.55;;;;;;;3.31;75.38;96314.81;5044427;28;20053;-48
2022/02/13 01:08:54;;;;;;;4.03;2.10;;;;;;;3.30;75.86;96308.06;5063188;28;20056;-46
2022/02/13 01:11:21;;;;;;;6.15;2.25;;;;;;;3.34;75.42;96304.22;5047494;28;20053;-48
2022/02/13 01:13:48;;;;;;;6.45;3.30;;;;;;;3.27;75.82;96308.34;5045186;28;20044;-52
2022/02/13 01:16:16;;;;;;;6.07;2.30;;;;;;;3.28;75.91;96303.03;5043992;28;20492;-51
2022/02/13 01:18:45;;;;;;;9.60;2.70;;;;;;;3.29;75.80;96306.41;5044402;28;20055;-48
2022/02/13 01:21:12;;;;;;;5.20;2.20;;;;;;;3.25;75.95;96301.56;5043743;28;20040;-48
2022/02/13 01:23:46;;;;;;;5.20;1.88;;;;;;;3.28;76.54;96305.63;5064232;28;20107;-48
2022/02/13 01:26:13;;;;;;;5.80;2.85;;;;;;;3.30;76.50;96308.06;5047639;28;20430;-49
2022/02/13 01:28:52;;;;;;;9.85;3.28;;;;;;;3.33;77.34;96312.88;5042263;28;20080;-50
2022/02/13 01:31:19;;;;;;;5.40;2.70;;;;;;;3.25;77.76;96301.56;5042283;28;20056;-46
2022/02/13 01:33:58;;;;;;;9.07;3.40;;;;;;;3.35;77.05;96295.50;5045265;28;20063;-52
2022/02/13 01:36:25;;;;;;;8.23;3.53;;;;;;;3.30;77.10;96293.41;5038873;28;20060;-47
2022/02/13 01:38:53;;;;;;;7.50;3.03;;;;;;;3.29;77.03;96286.63;5045312;28;20487;-49
2022/02/13 01:41:20;;;;;;;5.63;2.97;;;;;;;3.24;77.60;96289.66;5045881;28;20044;-48
2022/02/13 01:43:47;;;;;;;3.88;2.78;;;;;;;3.22;78.50;96285.59;5043490;28;20040;-47
2022/02/13 01:46:14;;;;;;;5.18;2.83;;;;;;;3.20;78.39;96282.38;5048564;28;20052;-50
2022/02/13 01:48:41;;;;;;;5.50;2.88;;;;;;;3.13;78.41;96282.16;5045377;28;20118;-48
2022/02/13 01:51:08;;;;;;;5.05;2.70;;;;;;;3.17;78.69;96288.63;5044608;28;20052;-48
2022/02/13 01:53:50;;;;;;;8.40;3.05;;;;;;;3.13;79.82;96284.72;5048405;28;20041;-46
2022/02/13 01:56:18;;;;;;;4.35;2.90;;;;;;;3.15;80.42;96282.81;5044646;28;20029;-49
2022/02/13 01:58:45;;;;;;;9.10;3.05;;;;;;;3.09;80.50;96280.81;5042641;28;20045;-48
2022/02/13 02:01:12;;;;;;;6.03;2.78;;;;;;;3.11;79.92;96278.91;5032216;28;22354;-46
2022/02/13 02:03:39;;;;;;;4.70;2.53;;;;;;;3.05;78.58;96279.53;5045779;28;20142;-48
2022/02/13 02:06:06;;;;;;;5.72;2.38;;;;;;;3.03;78.85;96286.59;5048396;28;20944;-52
2022/02/13 02:08:33;;;;;;;5.80;3.03;;;;;;;2.99;79.06;96280.09;5047050;28;20071;-48
2022/02/13 02:11:00;;;;;;;4.07;2.78;;;;;;;2.97;78.94;96282.00;5043227;28;20485;-51
2022/02/13 02:13:26;;;;;;;5.80;2.20;;;;;;;2.95;78.55;96276.19;5046144;28;20041;-51
2022/02/13 02:15:53;;;;;;;7.72;2.72;;;;;;;2.86;78.61;96265.84;5047284;28;20041;-49
2022/02/13 02:18:20;;;;;;;3.50;1.63;;;;;;;2.83;76.79;96270.50;5046683;28;20052;-49
2022/02/13 02:20:48;;;;;;;6.30;3.17;;;;;;;2.80;76.25;96274.16;5046558;28;20049;-49
2022/02/13 02:23:15;;;;;;;4.50;2.63;;;;;;;2.71;76.09;96267.31;5053499;28;20057;-47
2022/02/13 02:25:42;;;;;;;11.10;2.67;;;;;;;2.77;76.65;96271.84;5046716;28;20572;-50
2022/02/13 02:28:09;;;;;;;6.78;2.95;;;;;;;2.81;76.81;96272.38;5045969;28;20530;-47
2022/02/13 02:30:37;;;;;;;5.93;2.10;;;;;;;2.75;77.35;96273.78;5069941;28;20064;-49
2022/02/13 02:33:04;;;;;;;4.20;1.95;;;;;;;2.75;77.38;96278.91;5052728;28;20087;-51
2022/02/13 02:35:31;;;;;;;8.02;2.97;;;;;;;2.72;77.53;96281.81;5048162;28;20051;-47
2022/02/13 02:37:57;;;;;;;3.30;1.90;;;;;;;2.64;77.47;96277.38;5049211;28;20052;-47
2022/02/13 02:40:24;;;;;;;4.10;2.28;;;;;;;2.67;77.33;96287.38;5046277;28;20040;-47
2022/02/13 02:42:51;;;;;;;5.13;2.47;;;;;;;2.65;76.47;96284.13;5047173;28;20047;-46
2022/02/13 02:45:18;;;;;;;3.58;2.00;;;;;;;2.63;76.08;96282.69;5047428;28;20126;-47
2022/02/13 02:47:45;;;;;;;6.47;2.30;;;;;;;2.68;76.64;96288.16;5047627;28;20685;-48
2022/02/13 02:50:13;;;;;;;3.75;2.33;;;;;;;2.65;75.40;96293.63;5046318;28;20052;-49
2022/02/13 02:52:41;;;;;;;8.00;3.63;;;;;;;2.56;74.95;96289.34;5050523;28;20068;-51
2022/02/13 02:55:08;;;;;;;7.03;3.53;;;;;;;2.56;75.78;96291.94;5048896;28;20613;-48
2022/02/13 02:57:36;;;;;;;5.32;3.35;;;;;;;2.59;74.78;96294.19;5050978;28;20048;-48
2022/02/13 03:00:06;;;;;;;7.20;3.80;;;;;;;2.56;74.95;96294.50;5045685;28;20048;-48
2022/02/13 03:02:34;;;;;;;5.13;2.78;;;;;;;2.49;75.13;96289.91;5045727;28;20041;-49
2022/02/13 03:05:01;;;;;;;8.10;2.60;;;;;;;2.44;75.46;96291.31;5045731;28;20044;-50
2022/02/13 03:07:28;;;;;;;7.63;2.53;;;;;;;2.39;75.54;96294.28;5058923;28;20479;-48
2022/02/13 03:09:57;;;;;;;4.38;2.78;;;;;;;2.41;76.14;96307.84;5046897;28;20048;-47
2022/02/13 03:12:23;;;;;;;5.18;2.53;;;;;;;2.33;76.48;96297.47;5046435;28;20057;-47
2022/02/13 03:14:50;;;;;;;3.80;2.20;;;;;;;2.34;77.00;96301.66;5045609;28;20142;-48
2022/02/13 03:17:17;;;;;;;4.97;2.47;;;;;;;2.39;76.90;96311.50;5049780;28;20048;-46
2022/02/13 03:19:44;;;;;;;9.48;3.00;;;;;;;2.31;76.51;96307.06;5047288;28;20044;-47
2022/02/13 03:22:12;;;;;;;5.88;3.45;;;;;;;2.29;76.65;96303.84;5047657;28;20056;-48
2022/02/13 03:24:39;;;;;;;5.13;2.78;;;;;;;2.25;77.42;96294.78;5047547;28;20045;-49
2022/02/13 03:27:05;;;;;;;4.75;2.35;;;;;;;2.25;77.83;96298.19;5046249;28;20522;-47
2022/02/13 03:29:32;;;;;;;4.78;2.70;;;;;;;2.27;78.15;96295.47;5048677;28;20487;-46
2022/02/13 03:31:59;;;;;;;5.15;2.28;;;;;;;2.25;78.08;96302.50;5045243;28;20056;-47
2022/02/13 03:34:26;;;;;;;3.58;1.73;;;;;;;2.24;78.70;96295.75;5045523;28;20041;-47
2022/02/13 03:36:59;;;;;;;5.03;2.55;;;;;;;2.20;79.27;96289.28;5044511;28;20108;-49
2022/02/13 03:39:29;;;;;;;6.30;2.45;;;;;;;2.17;79.75;96294.69;5045724;28;20045;-46
2022/02/13 03:41:57;;;;;;;7.45;3.20;;;;;;;2.15;79.96;96288.88;5043607;28;20087;-46
2022/02/13 03:44:24;;;;;;;10.52;2.97;;;;;;;2.16;79.69;96293.91;5044677;28;20048;-48
2022/02/13 03:46:51;;;;;;;4.47;2.63;;;;;;;2.13;80.12;96288.22;5047657;28;20051;-48
2022/02/13 03:49:18;;;;;;;3.92;2.80;;;;;;;2.09;80.64;96288.50;5056060;28;20106;-49
2022/02/13 03:51:45;;;;;;;4.30;2.53;;;;;;;2.06;81.10;96299.06;5043590;28;20581;-46
2022/02/13 03:54:12;;;;;;;4.50;2.60;;;;;;;2.07;81.66;96295.56;5049021;28;20545;-47
2022/02/13 03:56:39;;;;;;;6.22;2.72;;;;;;;2.05;81.69;96297.47;5045314;28;20040;-46
2022/02/13 03:59:06;;;;;;;11.10;3.65;;;;;;;2.06;81.92;96304.19;5042966;28;20049;-46
2022/02/13 04:01:32;;;;;;;5.30;2.45;;;;;;;2.03;81.49;96299.34;5045592;28;20052;-49
2022/02/13 04:03:59;;;;;;;11.68;2.70;;;;;;;2.00;81.47;96294.50;5045069;28;20074;-52
2022/02/13 04:06:26;;;;;;;4.85;2.90;;;;;;;1.98;81.42;96298.97;5048738;28;20098;-46
2022/02/13 04:08:53;;;;;;;10.95;4.13;;;;;;;1.97;81.10;96310.19;5047791;28;20049;-48
2022/02/13 04:11:19;;;;;;;20.60;5.75;;;;;;;1.93;81.04;96298.59;5045228;28;20049;-50
2022/02/13 04:13:49;;;;;;;5.18;3.45;;;;;;;1.91;80.90;96303.06;5050938;28;20106;-46
2022/02/13 04:16:16;;;;;;;6.38;3.35;;;;;;;1.90;81.59;96301.41;5047557;28;20490;-51
2022/02/13 04:18:43;;;;;;;2.88;2.30;;;;;;;1.88;81.21;96296.41;5045947;28;20045;-47
2022/02/13 04:21:10;;;;;;;9.40;3.08;;;;;;;1.85;81.19;96301.03;5045485;28;20053;-51
2022/02/13 04:23:37;;;;;;;7.38;3.28;;;;;;;1.79;81.70;96301.59;5051171;28;20040;-47
2022/02/13 04:26:04;;;;;;;5.35;2.70;;;;;;;1.79;81.81;96297.25;5047130;28;20055;-48
2022/02/13 04:28:30;;;;;;;11.15;3.40;;;;;;;1.80;82.01;96303.19;5044493;28;20044;-47
2022/02/13 04:30:58;;;;;;;4.85;2.60;;;;;;;1.76;81.92;96307.00;5043962;28;20473;-46
2022/02/13 04:33:25;;;;;;;6.50;2.72;;;;;;;1.79;82.08;96311.88;5045112;28;20055;-46
2022/02/13 04:35:52;;;;;;;5.68;2.53;;;;;;;1.72;82.66;96304.72;5042148;28;20077;-47
2022/02/13 04:38:21;;;;;;;4.75;2.80;;;;;;;1.75;82.62;96305.38;5047126;28;20051;-46
2022/02/13 04:40:47;;;;;;;10.20;2.60;;;;;;;1.76;83.07;96307.00;5046139;28;20064;-46
2022/02/13 04:43:14;;;;;;;4.28;2.33;;;;;;;1.67;83.40;96299.19;5043866;28;20076;-48
2022/02/13 04:45:41;;;;;;;7.32;2.40;;;;;;;1.70;84.03;96304.03;5044240;28;20088;-49
2022/02/13 04:48:08;;;;;;;4.13;2.17;;;;;;;1.66;84.20;96296.78;5044872;28;20044;-49
2022/02/13 04:50:35;;;;;;;7.65;3.78;;;;;;;1.68;84.34;96311.09;5044309;28;20047;-51
2022/02/13 04:53:02;;;;;;;5.72;2.90;;;;;;;1.67;84.95;96304.31;5044690;28;20054;-47
2022/02/13 04:55:29;;;;;;;14.95;3.05;;;;;;;1.68;85.03;96305.16;5043998;28;20033;-48
2022/02/13 04:57:55;;;;;;;6.32;2.85;;;;;;;1.66;85.56;96304.47;5048220;28;20044;-47
2022/02/13 05:00:22;;;;;;;9.32;3.15;;;;;;;1.61;86.33;96307.44;5046016;28;20142;-48
2022/02/13 05:02:49;;;;;;;6.82;3.13;;;;;;;1.62;86.80;96305.69;5045523;28;20048;-46
2022/02/13 05:05:16;;;;;;;7.78;3.33;;;;;;;1.59;86.94;96301.66;5044802;28;20045;-46
2022/02/13 05:07:43;;;;;;;6.35;3.63;;;;;;;1.61;86.94;96299.75;5049034;28;20540;-47
2022/02/13 05:10:09;;;;;;;4.45;2.70;;;;;;;1.59;87.26;96305.97;5045891;28;20419;-48
2022/02/13 05:12:36;;;;;;;5.03;3.03;;;;;;;1.53;87.14;96308.16;5043974;28;20044;-49
2022/02/13 05:15:04;;;;;;;9.57;3.75;;;;;;;1.56;86.80;96312.19;5047762;28;20063;-46
2022/02/13 05:17:34;;;;;;;5.40;3.08;;;;;;;1.45;86.80;96300.31;5045715;28;20048;-47
2022/02/13 05:20:03;;;;;;;4.13;3.38;;;;;;;1.51;87.41;96309.22;5045458;28;20033;-47
2022/02/13 05:22:30;;;;;;;8.32;3.83;;;;;;;1.50;86.90;96307.63;5054176;28;20197;-48
2022/02/13 05:24:57;;;;;;;10.15;3.17;;;;;;;1.39;86.71;96294.91;5045255;28;20037;-48
2022/02/13 05:27:24;;;;;;;6.45;2.95;;;;;;;1.48;86.76;96304.38;5043191;28;20112;-47
2022/02/13 05:29:51;;;;;;;4.40;2.85;;;;;;;1.43;87.30;96316.81;5042482;28;20041;-48
2022/02/13 05:32:18;;;;;;;4.97;2.88;;;;;;;1.39;86.83;96312.88;5042990;28;20041;-46
2022/02/13 05:34:45;;;;;;;7.57;2.63;;;;;;;1.37;86.99;96312.22;5042478;28;20563;-50
2022/02/13 05:37:11;;;;;;;5.60;2.90;;;;;;;1.33;86.74;96312.50;5042996;28;20065;-48
2022/02/13 05:39:39;;;;;;;8.38;2.90;;;;;;;1.34;86.42;96305.59;5046095;28;20041;-46
2022/02/13 05:42:05;;;;;;;4.25;2.35;;;;;;;1.36;86.04;96311.41;5043804;28;20458;-46
2022/02/13 05:44:32;;;;;;;5.50;2.75;;;;;;;1.39;86.12;96318.84;5043164;28;20041;-46
2022/02/13 05:46:59;;;;;;;4.10;2.83;;;;;;;1.38;85.87;96313.84;5045801;28;20036;-46
2022/02/13 05:49:26;;;;;;;3.55;2.28;;;;;;;1.39;85.73;96315.44;5047793;28;20033;-48
2022/02/13 05:51:54;;;;;;;5.07;3.05;;;;;;;1.39;85.86;96320.59;5053081;28;20079;-47
2022/02/13 05:54:21;;;;;;;7.53;2.58;;;;;;;1.40;84.97;96322.22;5047929;28;20075;-49
2022/02/13 05:56:47;;;;;;;6.97;3.05;;;;;;;1.39;85.50;96320.59;5049633;28;20098;-47
2022/02/13 05:59:15;;;;;;;5.97;2.70;;;;;;;1.38;85.03;96318.97;5047264;28;20103;-51
2022/02/13 06:01:42;;;;;;;6.05;3.20;;;;;;;1.41;84.74;96318.72;5052882;28;20044;-51
2022/02/13 06:04:09;;;;;;;5.03;2.47;;;;;;;1.36;84.89;96310.59;5047093;28;20530;-52
2022/02/13 06:06:35;;;;;;;5.25;2.13;;;;;;;1.37;85.36;96322.47;5047173;28;20072;-50
2022/02/13 06:09:02;;;;;;;22.15;4.70;;;;;;;1.37;86.07;96323.31;5053484;28;20044;-50
2022/02/13 06:11:29;;;;;;;8.52;3.83;;;;;;;1.42;85.94;96315.97;5058939;28;20067;-48
2022/02/13 06:13:56;;;;;;;7.68;2.50;;;;;;;1.43;86.25;96321.94;5048157;28;20041;-48
2022/02/13 06:16:23;;;;;;;4.93;2.60;;;;;;;1.31;86.02;96295.59;5046223;28;20107;-47
2022/02/13 06:18:50;;;;;;;6.47;3.30;;;;;;;1.46;86.41;96316.53;5053364;28;20136;-48
2022/02/13 06:21:17;;;;;;;5.05;2.53;;;;;;;1.49;86.44;96321.38;5049793;28;20057;-48
2022/02/13 06:23:43;;;;;;;9.32;2.88;;;;;;;1.52;86.30;96331.41;5051714;28;20072;-47
2022/02/13 06:26:12;;;;;;;5.38;3.58;;;;;;;1.49;86.27;96326.53;5046002;28;20676;-46
2022/02/13 06:28:39;;;;;;;6.15;2.40;;;;;;;1.50;86.82;96330.72;5046393;28;20067;-47
2022/02/13 06:31:06;;;;;;;7.15;2.72;;;;;;;1.53;86.39;96323.56;5048263;28;20049;-47
2022/02/13 06:33:33;;;;;;;7.90;2.97;;;;;;;1.53;86.40;96325.28;5047907;28;20044;-46
2022/02/13 06:36:00;;;;;;;7.38;3.40;;;;;;;1.60;86.57;96334.06;5052214;28;20037;-52
2022/02/13 06:38:26;;;;;;;8.18;3.30;;;;;;;1.57;85.36;96323.25;5046716;28;20399;-51
2022/02/13 06:40:53;;;;;;;6.95;3.20;;;;;;;1.60;84.88;96328.94;5047017;28;20070;-47
2022/02/13 06:43:20;;;;;;;8.38;4.88;;;;;;;1.67;84.85;96330.00;5046813;28;20506;-50
2022/02/13 06:45:47;;;;;;;5.57;3.63;;;;;;;1.74;84.26;96324.31;5049761;28;20787;-49
2022/02/13 06:48:13;;;;;;;8.05;3.38;;;;;;;1.77;84.26;96334.34;5052419;28;20076;-49
2022/02/13 06:50:40;;;;;;;7.93;3.90;;;;;;;1.78;84.32;96330.78;5046940;28;20067;-49
2022/02/13 06:53:07;;;;;;;5.93;3.53;;;;;;;1.81;84.14;96330.53;5044974;28;20041;-49
2022/02/13 06:55:34;;;;;;;3.95;2.63;;;;;;;1.86;84.04;96333.50;5050203;28;20052;-47
2022/02/13 06:58:02;;;;;;;6.47;4.07;;;;;;;1.85;83.97;96324.16;5046425;28;20839;-48
2022/02/13 07:00:28;;;;;;;6.30;4.10;;;;;;;1.89;83.51;96333.19;5051200;28;20078;-46
2022/02/13 07:02:55;;;;;;;11.88;5.15;;;;;;;1.98;83.45;96322.09;5048686;28;20044;-47
2022/02/13 07:05:23;;;;;;;9.77;5.35;;;;;;;2.02;83.32;96320.88;5048105;28;20099;-47
2022/02/13 07:07:51;;;;;;;7.53;3.85;;;;;;;2.08;83.70;96327.19;5051042;28;20041;-47
2022/02/13 07:10:18;;;;;;;19.63;10.18;;;;;;;2.14;84.07;96323.25;5048472;28;20075;-48
2022/02/13 07:12:44;;;;;;;16.23;6.05;;;;;;;2.15;84.25;96322.31;5046019;28;20533;-50
2022/02/13 07:15:11;;;;;;;23.13;10.20;;;;;;;2.18;83.55;96316.88;5044524;28;20044;-48
2022/02/13 07:17:43;;;;;;;23.52;11.43;;;;;;;2.27;83.66;96321.19;5044110;28;20805;-48
2022/02/13 07:20:10;;;;;;;31.33;13.80;;;;;;;2.33;83.86;96320.59;5042304;28;20110;-49
2022/02/13 07:22:37;;;;;;;24.08;12.52;;;;;;;2.38;82.81;96318.41;5045744;28;20055;-52
2022/02/13 07:25:07;;;;;;;19.77;9.48;;;;;;;2.45;83.35;96323.81;5044276;28;20036;-48
2022/02/13 07:27:36;;;;;;;9.35;5.80;;;;;;;2.46;82.84;96321.06;5046174;28;20049;-47
2022/02/13 07:30:05;;;;;;;11.18;6.45;;;;;;;2.53;82.75;96315.34;5046694;28;20530;-49
2022/02/13 07:32:32;;;;;;;6.75;4.28;;;;;;;2.62;82.73;96319.63;5043820;28;20210;-49
2022/02/13 07:34:59;;;;;;;9.52;4.85;;;;;;;2.66;81.57;96316.59;5043343;28;20161;-49
2022/02/13 07:37:26;;;;;;;14.00;7.35;;;;;;;2.71;81.21;96311.03;5043756;28;20400;-47
2022/02/13 07:39:53;;;;;;;8.10;4.97;;;;;;;2.78;80.51;96314.66;5048185;28;20055;-50
2022/02/13 07:42:20;;;;;;;8.27;4.75;;;;;;;2.80;79.74;96311.94;5045206;28;20502;-46
2022/02/13 07:44:48;;;;;;;9.43;4.30;;;;;;;2.84;79.46;96316.63;5046523;28;20044;-46
2022/02/13 07:47:15;;;;;;;7.53;4.82;;;;;;;2.92;79.25;96320.25;5045696;28;20045;-47
2022/02/13 07:49:42;;;;;;;10.07;5.03;;;;;;;2.89;78.57;96299.97;5043710;28;20048;-46
2022/02/13 07:52:11;;;;;;;9.73;3.83;;;;;;;3.00;78.33;96312.59;5042483;28;20052;-50
2022/02/13 07:54:39;;;;;;;10.20;6.85;;;;;;;3.04;77.53;96308.78;5044178;28;20408;-47
2022/02/13 07:57:06;;;;;;;6.55;4.07;;;;;;;3.05;77.76;96315.56;5042617;28;20064;-51
2022/02/13 07:59:34;;;;;;;8.63;5.00;;;;;;;3.16;77.41;96310.19;5040969;28;20052;-50
2022/02/13 08:02:00;;;;;;;12.15;6.53;;;;;;;3.19;76.61;96301.38;5043445;28;20049;-47
2022/02/13 08:04:27;;;;;;;8.00;4.88;;;;;;;3.23;76.51;96313.78;5042609;28;20477;-47
2022/02/13 08:06:54;;;;;;;8.18;4.93;;;;;;;3.21;75.82;96305.41;5046403;28;20056;-49
2022/02/13 08:09:21;;;;;;;7.20;4.75;;;;;;;3.29;74.86;96306.41;5045356;28;20049;-47
2022/02/13 08:11:48;;;;;;;5.47;3.20;;;;;;;3.36;74.55;96302.28;5044376;28;20553;-46
2022/02/13 08:14:15;;;;;;;6.60;3.15;;;;;;;3.41;73.67;96310.38;5042664;28;20045;-46
2022/02/13 08:16:43;;;;;;;8.85;4.50;;;;;;;3.38;73.27;96301.16;5043155;28;20435;-49
2022/02/13 08:19:09;;;;;;;8.20;3.00;;;;;;;3.41;73.43;96298.31;5044488;28;20052;-47
2022/02/13 08:21:36;;;;;;;6.93;3.42;;;;;;;3.44;73.16;96289.47;5043998;28;20060;-48
2022/02/13 08:24:03;;;;;;;6.80;4.13;;;;;;;3.56;72.96;96290.03;5043742;28;20053;-49
2022/02/13 08:26:30;;;;;;;8.00;3.17;;;;;;;3.66;72.22;96292.53;5043344;28;20106;-47
2022/02/13 08:28:57;;;;;;;4.55;2.67;;;;;;;3.66;72.71;96298.47;5042925;28;20515;-48
2022/02/13 08:31:23;;;;;;;12.05;4.57;;;;;;;3.59;72.53;96290.53;5042179;28;20461;-47
2022/02/13 08:33:50;;;;;;;11.27;5.43;;;;;;;3.62;72.30;96292.81;5042144;28;20111;-48
2022/02/13 08:36:17;;;;;;;13.60;6.15;;;;;;;3.66;71.08;96292.53;5042635;28;20145;-46
2022/02/13 08:38:44;;;;;;;5.40;2.95;;;;;;;3.65;71.82;96286.53;5038457;28;20064;-47
2022/02/13 08:41:11;;;;;;;4.93;2.75;;;;;;;3.68;70.82;96290.59;5042748;28;20499;-46
2022/02/13 08:43:37;;;;;;;4.95;3.28;;;;;;;3.62;69.69;96292.03;5038912;28;20040;-47
2022/02/13 08:46:04;;;;;;;6.18;2.63;;;;;;;3.66;70.17;96297.69;5045478;28;20079;-46
2022/02/13 08:48:31;;;;;;;5.18;2.17;;;;;;;3.64;69.38;96290.91;5041026;28;20418;-49
2022/02/13 08:50:58;;;;;;;6.30;3.08;;;;;;;3.64;69.56;96280.59;5040481;28;20055;-49
2022/02/13 08:53:25;;;;;;;3.88;2.15;;;;;;;3.66;69.72;96282.22;5044769;28;20060;-47
2022/02/13 08:55:51;;;;;;;7.30;2.65;;;;;;;3.72;69.43;96276.44;5042950;28;20538;-47
2022/02/13 08:58:18;;;;;;;9.15;2.72;;;;;;;3.69;69.67;96266.44;5042326;28;20072;-47
2022/02/13 09:00:45;;;;;;;6.57;2.70;;;;;;;3.70;68.85;96283.53;5039096;28;20689;-48
2022/02/13 09:03:12;;;;;;;7.28;2.65;;;;;;;3.71;69.88;96274.81;5041714;28;20047;-53
2022/02/13 09:05:39;;;;;;;6.50;3.80;;;;;;;3.77;69.14;96276.81;5043743;28;20075;-47
2022/02/13 09:08:08;;;;;;;4.70;2.40;;;;;;;3.81;69.29;96283.25;5049468;28;20041;-48
2022/02/13 09:10:36;;;;;;;7.55;3.90;;;;;;;4.00;69.89;96270.16;5041240;28;20049;-49
2022/02/13 09:13:03;;;;;;;7.43;4.07;;;;;;;4.17;68.53;96270.22;5039127;28;20106;-50
2022/02/13 09:15:30;;;;;;;10.68;4.47;;;;;;;4.29;68.03;96271.56;5042550;28;20056;-49
2022/02/13 09:17:57;;;;;;;7.65;3.85;;;;;;;4.46;68.04;96274.19;5034524;28;20541;-47
2022/02/13 09:20:24;;;;;;;8.90;4.78;;;;;;;4.56;66.80;96262.75;5040933;28;20124;-47
2022/02/13 09:22:52;;;;;;;7.70;4.18;;;;;;;4.63;66.21;96265.53;5045970;28;20048;-48
2022/02/13 09:25:19;;;;;;;7.95;3.40;;;;;;;4.69;66.30;96269.25;5050290;28;20136;-48
2022/02/13 09:27:46;;;;;;;9.10;4.75;;;;;;;4.78;66.36;96263.13;5047314;28;20041;-49
2022/02/13 09:30:13;;;;;;;9.93;5.50;;;;;;;4.97;65.95;96262.03;5051511;28;20052;-51
2022/02/13 09:32:41;;;;;;;7.72;4.15;;;;;;;5.06;64.88;96265.41;5051419;28;20047;-51
2022/02/13 09:35:08;;;;;;;6.15;3.85;;;;;;;5.19;64.76;96259.78;5046423;28;20114;-48
2022/02/13 09:37:35;;;;;;;12.55;6.43;;;;;;;5.28;64.02;96256.22;5054447;28;20071;-48
2022/02/13 09:40:03;;;;;;;7.65;4.40;;;;;;;5.31;63.47;96255.88;5053941;28;20048;-47
2022/02/13 09:42:31;;;;;;;9.10;4.95;;;;;;;5.41;64.02;96259.09;5058447;28;20075;-51
2022/02/13 09:44:58;;;;;;;5.00;3.22;;;;;;;5.47;64.75;96253.28;5052713;28;20053;-48
2022/02/13 09:47:26;;;;;;;10.77;4.20;;;;;;;5.64;64.13;96248.09;5047161;28;20060;-51
2022/02/13 09:49:53;;;;;;;7.28;4.40;;;;;;;5.84;64.23;96248.53;5051743;28;20059;-47
2022/02/13 09:52:20;;;;;;;10.77;3.58;;;;;;;5.90;62.09;96243.47;5049897;28;20427;-51
2022/02/13 09:54:47;;;;;;;10.65;3.35;;;;;;;5.82;61.51;96245.31;5048915;28;20048;-47
2022/02/13 10:00:00;;;;;;;16.17;5.22;;;;;;;5.99;62.52;96235.75;5047200;28;20098;-50
2022/02/13 10:02:41;;;;;;;13.32;5.00;;;;;;;6.18;63.69;96237.94;5047785;28;20502;-45
2022/02/13 10:05:12;;;;;;;6.97;3.90;;;;;;;6.36;62.76;96232.50;5045440;28;20079;-45
2022/02/13 10:07:41;;;;;;;14.35;5.38;;;;;;;6.52;62.35;96226.44;5048232;28;20804;-46
2022/02/13 10:10:12;;;;;;;5.72;3.47;;;;;;;6.73;60.92;96225.81;5048782;28;20449;-45
2022/02/13 10:12:42;;;;;;;7.93;3.65;;;;;;;6.84;60.39;96219.41;5045873;28;20067;-47
2022/02/13 10:15:22;;;;;;;11.80;5.07;;;;;;;6.89;59.32;96211.94;5047831;28;20049;-47
2022/02/13 10:18:09;;;;;;;9.45;4.07;;;;;;;6.79;59.43;96206.19;5047373;28;20041;-45
2022/02/13 10:20:41;;;;;;;21.52;7.72;;;;;;;6.73;59.97;96204.28;5045987;28;20450;-45
2022/02/13 10:23:13;;;;;;;7.28;3.63;;;;;;;6.80;58.94;96202.63;5045161;28;20092;-48
2022/02/13 10:25:42;;;;;;;4.05;2.25;;;;;;;6.74;57.83;96195.56;5045765;28;20540;-46
2022/02/13 10:28:13;;;;;;;11.43;5.00;;;;;;;6.80;58.71;96197.44;5044459;28;20045;-47
2022/02/13 10:30:43;;;;;;;6.75;4.38;;;;;;;6.88;58.89;96192.22;5044506;28;20045;-47
2022/02/13 10:33:23;;;;;;;4.82;2.00;;;;;;;6.92;58.18;96185.69;5044690;28;20053;-46
2022/02/13 10:36:08;;;;;;;5.50;2.70;;;;;;;7.05;58.83;96185.09;5049392;28;20048;-47
2022/02/13 10:38:36;;;;;;;;;;;;;;;7.23;55.92;96192.56;5049719;28;20041;-46
2022/02/13 10:41:19;;;;;;;7.25;2.60;;;;;;;7.43;55.02;96183.28;5052661;28;19921;-46
2022/02/13 10:43:50;;;;;;;7.40;3.90;;;;;;;7.60;55.15;96175.34;5045929;28;20102;-49
2022/02/13 10:46:19;;;;;;;10.68;3.95;;;;;;;7.93;55.45;96170.56;5045118;28;20136;-48
2022/02/13 10:48:47;;;;;;;6.82;3.85;;;;;;;8.03;53.14;96157.31;5045650;28;20037;-47
2022/02/13 10:51:14;;;;;;;5.63;3.17;;;;;;;8.14;51.87;96154.25;5052365;28;20057;-50
2022/02/13 10:53:42;;;;;;;7.55;3.15;;;;;;;8.22;52.61;96153.34;5046867;28;20045;-49
2022/02/13 10:56:09;;;;;;;8.80;3.38;;;;;;;8.36;52.46;96146.50;5053740;28;20061;-47
2022/02/13 10:58:39;;;;;;;13.52;4.63;;;;;;;8.53;52.20;96142.69;5054638;28;20053;-51
2022/02/13 11:01:07;;;;;;;5.68;3.63;;;;;;;8.66;51.47;96138.63;5046318;28;20501;-47
2022/02/13 11:03:36;;;;;;;6.45;3.63;;;;;;;8.71;51.32;96134.47;5047197;28;20060;-46
2022/02/13 11:06:06;;;;;;;6.82;3.15;;;;;;;8.69;50.74;96130.47;5056229;28;20084;-49
2022/02/13 11:08:50;;;;;;;5.15;3.15;;;;;;;8.33;50.85;96126.09;5047753;28;20049;-48
2022/02/13 11:11:39;;;;;;;13.75;4.93;;;;;;;8.22;51.74;96117.00;5050640;28;20521;-52
2022/02/13 11:14:06;;;;;;;10.10;4.03;;;;;;;7.99;51.95;96109.38;5048437;28;20048;-51
2022/02/13 11:16:40;;;;;;;8.35;4.25;;;;;;;7.85;52.43;96114.44;5047830;28;20040;-48
2022/02/13 11:19:11;;;;;;;5.88;3.47;;;;;;;7.76;53.00;96094.78;5056297;28;20086;-47
2022/02/13 11:21:41;;;;;;;5.18;2.33;;;;;;;7.75;52.42;96108.72;5048353;28;20514;-50
2022/02/13 11:24:34;;;;;;;5.07;2.78;;;;;;;7.63;53.52;96099.78;5047830;28;20115;-47
2022/02/13 11:27:02;;;;;;;5.32;3.30;;;;;;;7.52;53.63;96092.47;5046425;28;20060;-48
2022/02/13 11:30:01;;;;;;;5.38;2.88;;;;;;;7.47;53.76;96090.41;5052620;28;20041;-51
2022/02/13 11:32:42;;;;;;;17.73;8.70;;;;;;;7.46;53.65;96084.44;5027442;28;20041;-48
2022/02/13 11:35:12;;;;;;;7.85;4.28;;;;;;;7.51;53.44;96081.31;5043723;28;20049;-50
2022/02/13 11:37:40;;;;;;;7.43;3.80;;;;;;;7.54;52.99;96082.72;5045268;28;20064;-50
2022/02/13 11:40:08;;;;;;;6.15;3.15;;;;;;;7.47;53.31;96069.66;5045851;28;20449;-48
2022/02/13 11:42:37;;;;;;;7.63;3.22;;;;;;;7.52;53.99;96072.53;5046472;28;20045;-48
2022/02/13 11:45:19;;;;;;;9.68;4.93;;;;;;;7.65;54.01;96069.28;5046775;28;20144;-47
2022/02/13 11:47:46;;;;;;;7.55;3.55;;;;;;;7.78;53.23;96066.84;5049663;28;20049;-46
2022/02/13 11:50:24;;;;;;;8.70;3.58;;;;;;;7.93;52.39;96055.63;5044999;28;20075;-51